sensor_id;sensor_type;location;lat;lon;timestamp;temperature;humidity
21648;DHT22;10985;54.182;7.890;2023-07-13T00:01:12;17.90;99.90
21648;DHT22;10985;54.182;7.890;2023-07-13T00:03:37;17.90;99.90
21648;DHT22;10985;54.182;7.890;2023-07-13T00:06:03;17.90;99.90
21648;DHT22;10985;54.182;7.890;2023-07-13T00:08:30;17.90;99.90
21648;DHT22;10985;54.182;7.890;2023-07-13T00:10:58;17.90;99.90
21648;DHT22;10985;54.182;7.890;2023-07-13T00:13:23;17.90;99.90
21648;DHT22;10985;54.182;7.890;2023-07-13T00:15:49;17.90;99.90
21648;DHT22;10985;54.182;7.890;2023-07-13T00:18:15;18.00;99.90
21648;DHT22;10985;54.182;7.890;2023-07-13T00:20:40;18.00;99.90
21648;DHT22;10985;54.182;7.890;2023-07-13T00:23:07;18.00;99.90
21648;DHT22;10985;54.182;7.890;2023-07-13T00:25:32;18.00;99.90
21648;DHT22;10985;54.182;7.890;2023-07-13T00:27:58;18.00;99.90
21648;DHT22;10985;54.182;7.890;2023-07-13T00:30:23;18.00;99.90
21648;DHT22;10985;54.182;7.890;2023-07-13T00:32:49;18.00;99.90
21648;DHT22;10985;54.182;7.890;2023-07-13T00:35:15;18.00;99.90
21648;DHT22;10985;54.182;7.890;2023-07-13T00:37:42;18.00;99.90
21648;DHT22;10985;54.182;7.890;2023-07-13T00:40:09;18.10;99.90
21648;DHT22;10985;54.182;7.890;2023-07-13T00:42:35;18.10;99.90
21648;DHT22;10985;54.182;7.890;2023-07-13T00:47:41;18.00;99.90
21648;DHT22;10985;54.182;7.890;2023-07-13T00:50:10;18.00;99.90
21648;DHT22;10985;54.182;7.890;2023-07-13T00:52:40;17.90;99.90
21648;DHT22;10985;54.182;7.890;2023-07-13T00:55:06;18.00;99.90
21648;DHT22;10985;54.182;7.890;2023-07-13T00:57:34;18.00;99.90
21648;DHT22;10985;54.182;7.890;2023-07-13T01:00:03;18.00;99.90
21648;DHT22;10985;54.182;7.890;2023-07-13T01:02:30;18.00;99.90
21648;DHT22;10985;54.182;7.890;2023-07-13T01:04:56;18.00;99.90
21648;DHT22;10985;54.182;7.890;2023-07-13T01:07:21;18.00;99.90
21648;DHT22;10985;54.182;7.890;2023-07-13T01:09:47;17.90;99.90
21648;DHT22;10985;54.182;7.890;2023-07-13T01:12:12;17.90;99.90
21648;DHT22;10985;54.182;7.890;2023-07-13T01:14:39;18.00;99.90
21648;DHT22;10985;54.182;7.890;2023-07-13T01:17:04;18.00;99.90
21648;DHT22;10985;54.182;7.890;2023-07-13T01:19:40;18.00;99.90
21648;DHT22;10985;54.182;7.890;2023-07-13T01:22:14;18.00;99.90
21648;DHT22;10985;54.182;7.890;2023-07-13T01:24:42;18.00;99.90
21648;DHT22;10985;54.182;7.890;2023-07-13T01:27:10;17.90;99.90
21648;DHT22;10985;54.182;7.890;2023-07-13T01:29:37;17.90;99.90
21648;DHT22;10985;54.182;7.890;2023-07-13T01:32:12;18.00;99.90
21648;DHT22;10985;54.182;7.890;2023-07-13T01:34:38;17.90;99.90
21648;DHT22;10985;54.182;7.890;2023-07-13T01:37:08;17.90;99.90
21648;DHT22;10985;54.182;7.890;2023-07-13T01:39:34;17.90;99.90
21648;DHT22;10985;54.182;7.890;2023-07-13T01:42:00;17.90;99.90
21648;DHT22;10985;54.182;7.890;2023-07-13T01:44:26;17.90;99.90
21648;DHT22;10985;54.182;7.890;2023-07-13T01:46:51;17.90;99.90
21648;DHT22;10985;54.182;7.890;2023-07-13T01:49:17;17.90;99.90
21648;DHT22;10985;54.182;7.890;2023-07-13T01:51:42;17.90;99.90
21648;DHT22;10985;54.182;7.890;2023-07-13T01:54:08;17.90;99.90
21648;DHT22;10985;54.182;7.890;2023-07-13T01:56:33;17.90;99.90
21648;DHT22;10985;54.182;7.890;2023-07-13T01:58:59;17.90;99.90
21648;DHT22;10985;54.182;7.890;2023-07-13T02:01:24;17.90;99.90
21648;DHT22;10985;54.182;7.890;2023-07-13T02:03:50;17.80;99.90
21648;DHT22;10985;54.182;7.890;2023-07-13T02:06:15;17.80;99.90
21648;DHT22;10985;54.182;7.890;2023-07-13T02:08:41;17.80;99.90
21648;DHT22;10985;54.182;7.890;2023-07-13T02:11:08;17.80;99.90
21648;DHT22;10985;54.182;7.890;2023-07-13T02:13:33;17.80;99.90
21648;DHT22;10985;54.182;7.890;2023-07-13T02:15:59;17.80;99.90
21648;DHT22;10985;54.182;7.890;2023-07-13T02:18:24;17.70;99.90
21648;DHT22;10985;54.182;7.890;2023-07-13T02:20:49;17.70;99.90
21648;DHT22;10985;54.182;7.890;2023-07-13T02:23:15;17.70;99.90
21648;DHT22;10985;54.182;7.890;2023-07-13T02:25:40;17.70;99.90
21648;DHT22;10985;54.182;7.890;2023-07-13T02:28:06;17.80;99.90
21648;DHT22;10985;54.182;7.890;2023-07-13T02:30:33;17.70;99.90
21648;DHT22;10985;54.182;7.890;2023-07-13T02:32:59;17.80;99.90
21648;DHT22;10985;54.182;7.890;2023-07-13T02:35:24;17.70;99.90
21648;DHT22;10985;54.182;7.890;2023-07-13T02:37:50;17.70;99.90
21648;DHT22;10985;54.182;7.890;2023-07-13T02:40:15;17.60;99.90
21648;DHT22;10985;54.182;7.890;2023-07-13T02:42:41;17.50;99.90
21648;DHT22;10985;54.182;7.890;2023-07-13T02:45:08;17.30;99.90
21648;DHT22;10985;54.182;7.890;2023-07-13T02:47:34;17.20;99.90
21648;DHT22;10985;54.182;7.890;2023-07-13T02:50:00;17.10;99.90
21648;DHT22;10985;54.182;7.890;2023-07-13T02:52:26;16.90;99.90
21648;DHT22;10985;54.182;7.890;2023-07-13T02:54:51;16.70;99.90
21648;DHT22;10985;54.182;7.890;2023-07-13T02:57:17;16.70;99.90
21648;DHT22;10985;54.182;7.890;2023-07-13T02:59:43;16.60;99.90
21648;DHT22;10985;54.182;7.890;2023-07-13T03:02:08;16.50;99.90
21648;DHT22;10985;54.182;7.890;2023-07-13T03:04:36;16.40;99.90
21648;DHT22;10985;54.182;7.890;2023-07-13T03:07:02;16.30;99.90
21648;DHT22;10985;54.182;7.890;2023-07-13T03:09:27;16.30;99.90
21648;DHT22;10985;54.182;7.890;2023-07-13T03:11:54;16.20;99.90
21648;DHT22;10985;54.182;7.890;2023-07-13T03:14:21;16.20;99.90
21648;DHT22;10985;54.182;7.890;2023-07-13T03:16:47;16.20;99.90
21648;DHT22;10985;54.182;7.890;2023-07-13T03:19:13;16.20;99.90
21648;DHT22;10985;54.182;7.890;2023-07-13T03:21:39;16.10;99.90
21648;DHT22;10985;54.182;7.890;2023-07-13T03:24:04;16.20;99.90
21648;DHT22;10985;54.182;7.890;2023-07-13T03:26:30;16.20;99.90
21648;DHT22;10985;54.182;7.890;2023-07-13T03:28:55;16.30;99.90
21648;DHT22;10985;54.182;7.890;2023-07-13T03:31:25;16.40;99.90
21648;DHT22;10985;54.182;7.890;2023-07-13T03:33:51;16.40;99.90
21648;DHT22;10985;54.182;7.890;2023-07-13T03:36:19;16.40;99.90
21648;DHT22;10985;54.182;7.890;2023-07-13T03:38:47;16.50;99.90
21648;DHT22;10985;54.182;7.890;2023-07-13T03:41:14;16.50;99.90
21648;DHT22;10985;54.182;7.890;2023-07-13T03:43:39;16.40;99.90
21648;DHT22;10985;54.182;7.890;2023-07-13T03:46:05;16.40;99.90
21648;DHT22;10985;54.182;7.890;2023-07-13T03:48:30;16.40;99.90
21648;DHT22;10985;54.182;7.890;2023-07-13T03:50:55;16.50;99.90
21648;DHT22;10985;54.182;7.890;2023-07-13T03:53:21;16.50;99.90
21648;DHT22;10985;54.182;7.890;2023-07-13T03:55:47;16.50;99.90
21648;DHT22;10985;54.182;7.890;2023-07-13T03:58:26;16.60;99.90
21648;DHT22;10985;54.182;7.890;2023-07-13T04:00:53;16.60;99.90
21648;DHT22;10985;54.182;7.890;2023-07-13T04:03:18;16.60;99.90
21648;DHT22;10985;54.182;7.890;2023-07-13T04:05:44;16.70;99.90
21648;DHT22;10985;54.182;7.890;2023-07-13T04:08:09;16.70;99.90
21648;DHT22;10985;54.182;7.890;2023-07-13T04:10:35;16.70;99.90
21648;DHT22;10985;54.182;7.890;2023-07-13T04:13:00;16.80;99.90
21648;DHT22;10985;54.182;7.890;2023-07-13T04:15:29;16.80;99.90
21648;DHT22;10985;54.182;7.890;2023-07-13T04:17:55;16.80;99.90
21648;DHT22;10985;54.182;7.890;2023-07-13T04:20:21;16.80;99.90
21648;DHT22;10985;54.182;7.890;2023-07-13T04:22:47;16.80;99.90
21648;DHT22;10985;54.182;7.890;2023-07-13T04:25:12;16.80;99.90
21648;DHT22;10985;54.182;7.890;2023-07-13T04:27:38;16.80;99.90
21648;DHT22;10985;54.182;7.890;2023-07-13T04:30:05;16.80;99.90
21648;DHT22;10985;54.182;7.890;2023-07-13T04:32:31;16.90;99.90
21648;DHT22;10985;54.182;7.890;2023-07-13T04:34:57;16.90;99.90
21648;DHT22;10985;54.182;7.890;2023-07-13T04:37:27;16.90;99.90
21648;DHT22;10985;54.182;7.890;2023-07-13T04:39:53;17.00;99.90
21648;DHT22;10985;54.182;7.890;2023-07-13T04:42:19;17.00;99.90
21648;DHT22;10985;54.182;7.890;2023-07-13T04:44:51;17.00;99.90
21648;DHT22;10985;54.182;7.890;2023-07-13T04:47:17;17.00;99.90
21648;DHT22;10985;54.182;7.890;2023-07-13T04:49:42;17.10;99.90
21648;DHT22;10985;54.182;7.890;2023-07-13T04:52:08;17.10;99.90
21648;DHT22;10985;54.182;7.890;2023-07-13T04:54:34;17.10;99.90
21648;DHT22;10985;54.182;7.890;2023-07-13T04:57:00;17.20;99.90
21648;DHT22;10985;54.182;7.890;2023-07-13T04:59:26;17.30;99.90
21648;DHT22;10985;54.182;7.890;2023-07-13T05:01:52;17.30;99.90
21648;DHT22;10985;54.182;7.890;2023-07-13T05:04:18;17.30;99.90
21648;DHT22;10985;54.182;7.890;2023-07-13T05:06:44;17.30;99.90
21648;DHT22;10985;54.182;7.890;2023-07-13T05:09:09;17.40;99.90
21648;DHT22;10985;54.182;7.890;2023-07-13T05:11:35;17.40;99.90
21648;DHT22;10985;54.182;7.890;2023-07-13T05:14:00;17.30;99.90
21648;DHT22;10985;54.182;7.890;2023-07-13T05:16:26;17.40;99.90
21648;DHT22;10985;54.182;7.890;2023-07-13T05:18:52;17.40;99.90
21648;DHT22;10985;54.182;7.890;2023-07-13T05:21:18;17.40;99.90
21648;DHT22;10985;54.182;7.890;2023-07-13T05:23:43;17.40;99.90
21648;DHT22;10985;54.182;7.890;2023-07-13T05:26:09;17.50;99.90
21648;DHT22;10985;54.182;7.890;2023-07-13T05:28:34;17.50;99.90
21648;DHT22;10985;54.182;7.890;2023-07-13T05:31:00;17.10;99.90
21648;DHT22;10985;54.182;7.890;2023-07-13T05:33:26;17.10;99.90
21648;DHT22;10985;54.182;7.890;2023-07-13T05:35:51;17.10;99.90
21648;DHT22;10985;54.182;7.890;2023-07-13T05:38:17;17.10;99.90
21648;DHT22;10985;54.182;7.890;2023-07-13T05:40:43;17.00;99.90
21648;DHT22;10985;54.182;7.890;2023-07-13T05:43:09;17.00;99.90
21648;DHT22;10985;54.182;7.890;2023-07-13T05:45:35;17.00;99.90
21648;DHT22;10985;54.182;7.890;2023-07-13T05:48:00;16.90;99.90
21648;DHT22;10985;54.182;7.890;2023-07-13T05:50:26;16.90;99.90
21648;DHT22;10985;54.182;7.890;2023-07-13T05:52:52;17.00;99.90
21648;DHT22;10985;54.182;7.890;2023-07-13T05:55:18;17.00;99.90
21648;DHT22;10985;54.182;7.890;2023-07-13T05:57:43;17.10;99.90
21648;DHT22;10985;54.182;7.890;2023-07-13T06:00:09;17.20;99.90
21648;DHT22;10985;54.182;7.890;2023-07-13T06:02:35;17.30;99.90
21648;DHT22;10985;54.182;7.890;2023-07-13T06:05:01;17.50;99.90
21648;DHT22;10985;54.182;7.890;2023-07-13T06:07:26;17.60;99.90
21648;DHT22;10985;54.182;7.890;2023-07-13T06:09:52;17.70;99.90
21648;DHT22;10985;54.182;7.890;2023-07-13T06:12:17;17.80;99.90
21648;DHT22;10985;54.182;7.890;2023-07-13T06:14:43;17.90;99.90
21648;DHT22;10985;54.182;7.890;2023-07-13T06:17:08;18.10;99.90
21648;DHT22;10985;54.182;7.890;2023-07-13T06:19:34;18.20;99.90
21648;DHT22;10985;54.182;7.890;2023-07-13T06:22:00;18.20;99.90
21648;DHT22;10985;54.182;7.890;2023-07-13T06:24:26;18.40;99.90
21648;DHT22;10985;54.182;7.890;2023-07-13T06:26:51;18.50;99.90
21648;DHT22;10985;54.182;7.890;2023-07-13T06:29:17;18.60;99.90
21648;DHT22;10985;54.182;7.890;2023-07-13T06:31:42;18.70;99.90
21648;DHT22;10985;54.182;7.890;2023-07-13T06:34:08;18.80;99.90
21648;DHT22;10985;54.182;7.890;2023-07-13T06:36:33;18.90;99.90
21648;DHT22;10985;54.182;7.890;2023-07-13T06:38:59;19.00;99.90
21648;DHT22;10985;54.182;7.890;2023-07-13T06:41:25;19.20;99.90
21648;DHT22;10985;54.182;7.890;2023-07-13T06:43:53;19.20;99.90
21648;DHT22;10985;54.182;7.890;2023-07-13T06:46:21;19.20;99.90
21648;DHT22;10985;54.182;7.890;2023-07-13T06:48:47;19.30;99.90
21648;DHT22;10985;54.182;7.890;2023-07-13T06:51:13;19.50;99.90
21648;DHT22;10985;54.182;7.890;2023-07-13T06:53:38;19.50;99.90
21648;DHT22;10985;54.182;7.890;2023-07-13T06:56:04;19.70;99.90
21648;DHT22;10985;54.182;7.890;2023-07-13T06:58:30;19.80;99.90
21648;DHT22;10985;54.182;7.890;2023-07-13T07:00:56;19.90;99.90
21648;DHT22;10985;54.182;7.890;2023-07-13T07:03:21;20.00;99.90
21648;DHT22;10985;54.182;7.890;2023-07-13T07:05:47;20.10;99.90
21648;DHT22;10985;54.182;7.890;2023-07-13T07:08:13;20.20;99.90
21648;DHT22;10985;54.182;7.890;2023-07-13T07:10:39;20.30;99.90
21648;DHT22;10985;54.182;7.890;2023-07-13T07:13:05;20.40;99.90
21648;DHT22;10985;54.182;7.890;2023-07-13T07:15:30;20.30;99.90
21648;DHT22;10985;54.182;7.890;2023-07-13T07:17:56;20.30;99.90
21648;DHT22;10985;54.182;7.890;2023-07-13T07:20:21;20.40;99.90
21648;DHT22;10985;54.182;7.890;2023-07-13T07:22:47;20.50;99.90
21648;DHT22;10985;54.182;7.890;2023-07-13T07:25:13;20.50;99.90
21648;DHT22;10985;54.182;7.890;2023-07-13T07:27:39;20.50;99.90
21648;DHT22;10985;54.182;7.890;2023-07-13T07:30:05;20.50;99.90
21648;DHT22;10985;54.182;7.890;2023-07-13T07:32:31;20.60;99.90
21648;DHT22;10985;54.182;7.890;2023-07-13T07:34:57;20.70;99.90
21648;DHT22;10985;54.182;7.890;2023-07-13T07:37:23;20.60;99.90
21648;DHT22;10985;54.182;7.890;2023-07-13T07:39:48;20.70;99.90
21648;DHT22;10985;54.182;7.890;2023-07-13T07:42:15;20.90;99.90
21648;DHT22;10985;54.182;7.890;2023-07-13T07:44:41;21.00;99.90
21648;DHT22;10985;54.182;7.890;2023-07-13T07:47:07;21.10;99.90
21648;DHT22;10985;54.182;7.890;2023-07-13T07:49:33;21.10;99.90
21648;DHT22;10985;54.182;7.890;2023-07-13T07:51:58;21.10;99.90
21648;DHT22;10985;54.182;7.890;2023-07-13T07:54:24;21.20;99.90
21648;DHT22;10985;54.182;7.890;2023-07-13T07:56:49;21.20;99.90
21648;DHT22;10985;54.182;7.890;2023-07-13T07:59:15;21.30;99.90
21648;DHT22;10985;54.182;7.890;2023-07-13T08:01:40;21.30;99.90
21648;DHT22;10985;54.182;7.890;2023-07-13T08:04:06;21.30;99.90
21648;DHT22;10985;54.182;7.890;2023-07-13T08:06:33;21.30;99.90
21648;DHT22;10985;54.182;7.890;2023-07-13T08:08:59;21.30;99.90
21648;DHT22;10985;54.182;7.890;2023-07-13T08:11:25;21.40;99.90
21648;DHT22;10985;54.182;7.890;2023-07-13T08:13:51;21.30;99.90
21648;DHT22;10985;54.182;7.890;2023-07-13T08:16:16;21.30;99.90
21648;DHT22;10985;54.182;7.890;2023-07-13T08:18:42;21.30;99.90
21648;DHT22;10985;54.182;7.890;2023-07-13T08:23:35;21.40;99.90
21648;DHT22;10985;54.182;7.890;2023-07-13T08:26:01;21.40;99.90
21648;DHT22;10985;54.182;7.890;2023-07-13T08:28:28;21.60;99.90
21648;DHT22;10985;54.182;7.890;2023-07-13T08:30:54;21.70;99.90
21648;DHT22;10985;54.182;7.890;2023-07-13T08:33:21;21.90;99.90
21648;DHT22;10985;54.182;7.890;2023-07-13T08:35:49;22.10;99.90
21648;DHT22;10985;54.182;7.890;2023-07-13T08:38:15;22.30;99.90
21648;DHT22;10985;54.182;7.890;2023-07-13T08:40:42;22.50;99.90
21648;DHT22;10985;54.182;7.890;2023-07-13T08:43:17;22.60;99.90
21648;DHT22;10985;54.182;7.890;2023-07-13T08:45:46;22.70;99.90
21648;DHT22;10985;54.182;7.890;2023-07-13T08:48:28;22.90;99.90
21648;DHT22;10985;54.182;7.890;2023-07-13T08:51:30;23.10;99.90
21648;DHT22;10985;54.182;7.890;2023-07-13T08:54:03;23.30;99.90
21648;DHT22;10985;54.182;7.890;2023-07-13T08:56:30;23.60;99.90
21648;DHT22;10985;54.182;7.890;2023-07-13T08:59:00;24.10;99.90
21648;DHT22;10985;54.182;7.890;2023-07-13T09:02:04;24.70;99.90
21648;DHT22;10985;54.182;7.890;2023-07-13T09:04:46;25.10;99.90
21648;DHT22;10985;54.182;7.890;2023-07-13T09:07:20;25.30;99.90
21648;DHT22;10985;54.182;7.890;2023-07-13T09:10:15;25.50;99.90
21648;DHT22;10985;54.182;7.890;2023-07-13T09:13:00;25.70;99.90
21648;DHT22;10985;54.182;7.890;2023-07-13T09:15:37;25.70;99.90
21648;DHT22;10985;54.182;7.890;2023-07-13T09:18:11;26.00;99.90
21648;DHT22;10985;54.182;7.890;2023-07-13T09:23:16;26.90;99.90
21648;DHT22;10985;54.182;7.890;2023-07-13T09:25:46;27.30;99.90
21648;DHT22;10985;54.182;7.890;2023-07-13T09:28:19;27.50;99.90
21648;DHT22;10985;54.182;7.890;2023-07-13T09:33:29;27.80;99.90
21648;DHT22;10985;54.182;7.890;2023-07-13T09:35:56;28.00;99.90
21648;DHT22;10985;54.182;7.890;2023-07-13T09:38:27;28.20;99.90
21648;DHT22;10985;54.182;7.890;2023-07-13T09:44:00;28.70;99.90
21648;DHT22;10985;54.182;7.890;2023-07-13T09:46:25;28.80;99.90
21648;DHT22;10985;54.182;7.890;2023-07-13T09:48:51;28.80;99.90
21648;DHT22;10985;54.182;7.890;2023-07-13T09:51:16;28.80;99.90
21648;DHT22;10985;54.182;7.890;2023-07-13T09:53:43;29.00;99.90
21648;DHT22;10985;54.182;7.890;2023-07-13T09:56:28;29.10;99.90
21648;DHT22;10985;54.182;7.890;2023-07-13T09:58:55;29.10;99.90
21648;DHT22;10985;54.182;7.890;2023-07-13T10:01:38;29.20;99.90
21648;DHT22;10985;54.182;7.890;2023-07-13T10:04:13;29.40;99.90
21648;DHT22;10985;54.182;7.890;2023-07-13T10:06:41;29.40;99.90
21648;DHT22;10985;54.182;7.890;2023-07-13T10:09:08;29.70;99.90
21648;DHT22;10985;54.182;7.890;2023-07-13T10:11:36;29.80;99.90
21648;DHT22;10985;54.182;7.890;2023-07-13T10:14:15;30.10;99.90
21648;DHT22;10985;54.182;7.890;2023-07-13T10:16:43;30.10;99.90
21648;DHT22;10985;54.182;7.890;2023-07-13T10:19:21;30.20;99.90
21648;DHT22;10985;54.182;7.890;2023-07-13T10:21:54;30.40;99.90
21648;DHT22;10985;54.182;7.890;2023-07-13T10:24:23;30.40;99.90
21648;DHT22;10985;54.182;7.890;2023-07-13T10:29:38;31.00;99.90
21648;DHT22;10985;54.182;7.890;2023-07-13T10:32:15;31.10;99.90
21648;DHT22;10985;54.182;7.890;2023-07-13T10:34:43;31.30;99.90
21648;DHT22;10985;54.182;7.890;2023-07-13T10:37:20;31.30;99.90
21648;DHT22;10985;54.182;7.890;2023-07-13T10:39:47;31.40;99.90
21648;DHT22;10985;54.182;7.890;2023-07-13T10:42:25;31.60;99.90
21648;DHT22;10985;54.182;7.890;2023-07-13T10:44:52;31.90;99.90
21648;DHT22;10985;54.182;7.890;2023-07-13T10:47:17;32.10;99.90
21648;DHT22;10985;54.182;7.890;2023-07-13T10:49:44;32.40;99.90
21648;DHT22;10985;54.182;7.890;2023-07-13T10:52:40;32.30;99.90
21648;DHT22;10985;54.182;7.890;2023-07-13T10:55:34;32.40;99.90
21648;DHT22;10985;54.182;7.890;2023-07-13T10:58:13;32.70;99.90
21648;DHT22;10985;54.182;7.890;2023-07-13T11:03:48;33.20;98.90
21648;DHT22;10985;54.182;7.890;2023-07-13T11:06:34;33.30;98.50
21648;DHT22;10985;54.182;7.890;2023-07-13T11:09:39;33.50;98.20
21648;DHT22;10985;54.182;7.890;2023-07-13T11:17:49;34.00;97.30
21648;DHT22;10985;54.182;7.890;2023-07-13T11:25:35;34.00;96.70
21648;DHT22;10985;54.182;7.890;2023-07-13T11:30:43;34.00;96.00
21648;DHT22;10985;54.182;7.890;2023-07-13T11:33:23;33.80;96.30
21648;DHT22;10985;54.182;7.890;2023-07-13T11:38:35;33.60;96.40
21648;DHT22;10985;54.182;7.890;2023-07-13T11:41:05;33.90;96.50
21648;DHT22;10985;54.182;7.890;2023-07-13T11:43:31;34.00;96.10
21648;DHT22;10985;54.182;7.890;2023-07-13T11:46:11;34.00;95.80
21648;DHT22;10985;54.182;7.890;2023-07-13T11:48:37;34.10;95.50
21648;DHT22;10985;54.182;7.890;2023-07-13T11:51:04;33.90;95.70
21648;DHT22;10985;54.182;7.890;2023-07-13T11:53:44;33.70;95.80
21648;DHT22;10985;54.182;7.890;2023-07-13T11:56:10;33.50;96.00
21648;DHT22;10985;54.182;7.890;2023-07-13T11:58:36;33.20;95.20
21648;DHT22;10985;54.182;7.890;2023-07-13T12:01:02;33.00;95.90
21648;DHT22;10985;54.182;7.890;2023-07-13T12:03:30;33.10;96.20
21648;DHT22;10985;54.182;7.890;2023-07-13T12:08:23;33.20;95.50
21648;DHT22;10985;54.182;7.890;2023-07-13T12:10:56;33.20;95.70
21648;DHT22;10985;54.182;7.890;2023-07-13T12:13:22;33.40;95.50
21648;DHT22;10985;54.182;7.890;2023-07-13T12:15:48;33.30;95.20
21648;DHT22;10985;54.182;7.890;2023-07-13T12:18:18;33.20;95.40
21648;DHT22;10985;54.182;7.890;2023-07-13T12:20:44;32.80;95.20
21648;DHT22;10985;54.182;7.890;2023-07-13T12:23:25;32.80;95.60
21648;DHT22;10985;54.182;7.890;2023-07-13T12:25:53;32.70;95.60
21648;DHT22;10985;54.182;7.890;2023-07-13T12:28:21;32.80;96.30
21648;DHT22;10985;54.182;7.890;2023-07-13T12:30:48;32.90;95.60
21648;DHT22;10985;54.182;7.890;2023-07-13T12:33:15;33.00;95.70
21648;DHT22;10985;54.182;7.890;2023-07-13T12:35:52;33.20;95.30
21648;DHT22;10985;54.182;7.890;2023-07-13T12:38:18;33.10;94.90
21648;DHT22;10985;54.182;7.890;2023-07-13T12:40:49;33.20;95.20
21648;DHT22;10985;54.182;7.890;2023-07-13T12:43:15;33.10;95.70
21648;DHT22;10985;54.182;7.890;2023-07-13T12:48:22;32.80;96.60
21648;DHT22;10985;54.182;7.890;2023-07-13T12:50:49;32.80;96.00
21648;DHT22;10985;54.182;7.890;2023-07-13T12:53:23;32.80;96.10
21648;DHT22;10985;54.182;7.890;2023-07-13T12:55:58;32.80;96.40
21648;DHT22;10985;54.182;7.890;2023-07-13T12:58:35;32.80;96.00
21648;DHT22;10985;54.182;7.890;2023-07-13T13:01:02;32.70;96.20
21648;DHT22;10985;54.182;7.890;2023-07-13T13:03:40;32.20;95.90
21648;DHT22;10985;54.182;7.890;2023-07-13T13:08:40;31.80;97.00
21648;DHT22;10985;54.182;7.890;2023-07-13T13:11:08;31.60;97.60
21648;DHT22;10985;54.182;7.890;2023-07-13T13:13:34;31.30;97.30
21648;DHT22;10985;54.182;7.890;2023-07-13T13:16:14;31.00;97.60
21648;DHT22;10985;54.182;7.890;2023-07-13T13:18:42;30.60;97.50
21648;DHT22;10985;54.182;7.890;2023-07-13T13:21:09;30.40;98.50
21648;DHT22;10985;54.182;7.890;2023-07-13T13:23:35;30.20;99.40
21648;DHT22;10985;54.182;7.890;2023-07-13T13:26:01;29.80;99.90
21648;DHT22;10985;54.182;7.890;2023-07-13T13:28:27;29.60;99.90
21648;DHT22;10985;54.182;7.890;2023-07-13T13:30:52;29.30;99.90
21648;DHT22;10985;54.182;7.890;2023-07-13T13:33:20;29.00;99.90
21648;DHT22;10985;54.182;7.890;2023-07-13T13:35:47;28.90;99.90
21648;DHT22;10985;54.182;7.890;2023-07-13T13:38:14;28.50;99.90
21648;DHT22;10985;54.182;7.890;2023-07-13T13:40:42;28.20;99.90
21648;DHT22;10985;54.182;7.890;2023-07-13T13:43:18;28.10;99.90
21648;DHT22;10985;54.182;7.890;2023-07-13T13:45:45;27.90;99.90
21648;DHT22;10985;54.182;7.890;2023-07-13T13:48:17;27.70;99.90
21648;DHT22;10985;54.182;7.890;2023-07-13T13:50:43;27.40;99.90
21648;DHT22;10985;54.182;7.890;2023-07-13T13:53:12;27.20;99.90
21648;DHT22;10985;54.182;7.890;2023-07-13T13:55:39;27.00;99.90
21648;DHT22;10985;54.182;7.890;2023-07-13T13:58:09;26.90;99.90
21648;DHT22;10985;54.182;7.890;2023-07-13T14:00:39;26.60;99.90
21648;DHT22;10985;54.182;7.890;2023-07-13T14:03:05;26.10;99.90
21648;DHT22;10985;54.182;7.890;2023-07-13T14:05:32;25.80;99.90
21648;DHT22;10985;54.182;7.890;2023-07-13T14:07:57;25.60;99.90
21648;DHT22;10985;54.182;7.890;2023-07-13T14:10:23;25.50;99.90
21648;DHT22;10985;54.182;7.890;2023-07-13T14:12:52;25.40;99.90
21648;DHT22;10985;54.182;7.890;2023-07-13T14:15:27;25.40;99.90
21648;DHT22;10985;54.182;7.890;2023-07-13T14:17:53;25.20;99.90
21648;DHT22;10985;54.182;7.890;2023-07-13T14:20:21;25.00;99.90
21648;DHT22;10985;54.182;7.890;2023-07-13T14:22:49;24.90;99.90
21648;DHT22;10985;54.182;7.890;2023-07-13T14:25:16;24.50;99.90
21648;DHT22;10985;54.182;7.890;2023-07-13T14:27:43;24.40;99.90
21648;DHT22;10985;54.182;7.890;2023-07-13T14:30:21;24.20;99.90
21648;DHT22;10985;54.182;7.890;2023-07-13T14:32:47;24.20;99.90
21648;DHT22;10985;54.182;7.890;2023-07-13T14:35:15;24.00;99.90
21648;DHT22;10985;54.182;7.890;2023-07-13T14:37:42;23.90;99.90
21648;DHT22;10985;54.182;7.890;2023-07-13T14:40:16;23.60;99.90
21648;DHT22;10985;54.182;7.890;2023-07-13T14:42:42;23.60;99.90
21648;DHT22;10985;54.182;7.890;2023-07-13T14:45:13;23.50;99.90
21648;DHT22;10985;54.182;7.890;2023-07-13T14:47:39;23.50;99.90
21648;DHT22;10985;54.182;7.890;2023-07-13T14:50:04;23.40;99.90
21648;DHT22;10985;54.182;7.890;2023-07-13T14:52:30;23.30;99.90
21648;DHT22;10985;54.182;7.890;2023-07-13T14:54:56;23.20;99.90
21648;DHT22;10985;54.182;7.890;2023-07-13T14:57:21;23.10;99.90
21648;DHT22;10985;54.182;7.890;2023-07-13T14:59:47;23.10;99.90
21648;DHT22;10985;54.182;7.890;2023-07-13T15:04:47;23.10;99.90
21648;DHT22;10985;54.182;7.890;2023-07-13T15:07:12;23.00;99.90
21648;DHT22;10985;54.182;7.890;2023-07-13T15:09:41;22.90;99.90
21648;DHT22;10985;54.182;7.890;2023-07-13T15:12:07;22.90;99.90
21648;DHT22;10985;54.182;7.890;2023-07-13T15:14:32;22.90;99.90
21648;DHT22;10985;54.182;7.890;2023-07-13T15:16:58;22.80;99.90
21648;DHT22;10985;54.182;7.890;2023-07-13T15:19:25;22.80;99.90
21648;DHT22;10985;54.182;7.890;2023-07-13T15:21:52;22.70;99.90
21648;DHT22;10985;54.182;7.890;2023-07-13T15:24:20;22.60;99.90
21648;DHT22;10985;54.182;7.890;2023-07-13T15:26:46;22.60;99.90
21648;DHT22;10985;54.182;7.890;2023-07-13T15:29:15;22.60;99.90
21648;DHT22;10985;54.182;7.890;2023-07-13T15:31:41;22.50;99.90
21648;DHT22;10985;54.182;7.890;2023-07-13T15:34:15;22.60;99.90
21648;DHT22;10985;54.182;7.890;2023-07-13T15:36:41;22.60;99.90
21648;DHT22;10985;54.182;7.890;2023-07-13T15:39:14;22.50;99.90
21648;DHT22;10985;54.182;7.890;2023-07-13T15:41:41;22.50;99.90
21648;DHT22;10985;54.182;7.890;2023-07-13T15:44:31;22.50;99.90
21648;DHT22;10985;54.182;7.890;2023-07-13T15:46:57;22.50;99.90
21648;DHT22;10985;54.182;7.890;2023-07-13T15:49:23;22.40;99.90
21648;DHT22;10985;54.182;7.890;2023-07-13T15:51:48;22.40;99.90
21648;DHT22;10985;54.182;7.890;2023-07-13T15:54:16;22.30;99.90
21648;DHT22;10985;54.182;7.890;2023-07-13T15:56:42;22.30;99.90
21648;DHT22;10985;54.182;7.890;2023-07-13T15:59:10;22.20;99.90
21648;DHT22;10985;54.182;7.890;2023-07-13T16:01:38;22.10;99.90
21648;DHT22;10985;54.182;7.890;2023-07-13T16:04:04;22.00;99.90
21648;DHT22;10985;54.182;7.890;2023-07-13T16:06:36;22.00;99.90
21648;DHT22;10985;54.182;7.890;2023-07-13T16:09:03;22.00;99.90
21648;DHT22;10985;54.182;7.890;2023-07-13T16:11:38;22.00;99.90
21648;DHT22;10985;54.182;7.890;2023-07-13T16:14:04;22.00;99.90
21648;DHT22;10985;54.182;7.890;2023-07-13T16:16:33;22.00;99.90
21648;DHT22;10985;54.182;7.890;2023-07-13T16:19:01;21.90;99.90
21648;DHT22;10985;54.182;7.890;2023-07-13T16:21:29;21.80;99.90